sensor_id;sensor_type;location;lat;lon;timestamp;pressure;altitude;pressure_sealevel;temperature;humidity
77778;BME280;66966;-34.746;138.604;2023-02-21T00:00:15;102093.00;;;30.72;19.83
77778;BME280;66966;-34.746;138.604;2023-02-21T00:02:40;102092.69;;;30.69;19.46
77778;BME280;66966;-34.746;138.604;2023-02-21T00:05:05;102093.07;;;30.99;19.64
77778;BME280;66966;-34.746;138.604;2023-02-21T00:07:30;102088.05;;;30.99;19.67
77778;BME280;66966;-34.746;138.604;2023-02-21T00:09:55;102086.39;;;30.83;19.45
77778;BME280;66966;-34.746;138.604;2023-02-21T00:12:20;102078.08;;;30.84;19.03
77778;BME280;66966;-34.746;138.604;2023-02-21T00:14:45;102083.30;;;30.76;19.04
77778;BME280;66966;-34.746;138.604;2023-02-21T00:17:10;102083.87;;;30.91;19.22
77778;BME280;66966;-34.746;138.604;2023-02-21T00:19:36;102087.10;;;31.20;19.08
77778;BME280;66966;-34.746;138.604;2023-02-21T00:22:00;102077.78;;;31.46;18.90
77778;BME280;66966;-34.746;138.604;2023-02-21T00:24:25;102078.82;;;31.70;19.18
77778;BME280;66966;-34.746;138.604;2023-02-21T00:26:51;102081.25;;;31.88;19.12
77778;BME280;66966;-34.746;138.604;2023-02-21T00:29:16;102079.30;;;32.04;18.56
77778;BME280;66966;-34.746;138.604;2023-02-21T00:31:41;102069.65;;;31.88;18.42
77778;BME280;66966;-34.746;138.604;2023-02-21T00:34:06;102066.31;;;31.97;18.15
77778;BME280;66966;-34.746;138.604;2023-02-21T00:36:31;102065.67;;;32.07;18.32
77778;BME280;66966;-34.746;138.604;2023-02-21T00:38:56;102063.80;;;32.14;17.81
77778;BME280;66966;-34.746;138.604;2023-02-21T00:41:22;102057.17;;;32.02;17.47
77778;BME280;66966;-34.746;138.604;2023-02-21T00:43:46;102056.28;;;32.30;17.66
77778;BME280;66966;-34.746;138.604;2023-02-21T00:46:11;102051.23;;;32.58;17.56
77778;BME280;66966;-34.746;138.604;2023-02-21T00:48:36;102045.76;;;32.82;17.24
77778;BME280;66966;-34.746;138.604;2023-02-21T00:51:01;102039.53;;;32.81;16.92
77778;BME280;66966;-34.746;138.604;2023-02-21T00:53:26;102038.90;;;33.27;16.86
77778;BME280;66966;-34.746;138.604;2023-02-21T00:55:51;102037.98;;;33.21;16.53
77778;BME280;66966;-34.746;138.604;2023-02-21T00:58:16;102029.67;;;33.08;16.23
77778;BME280;66966;-34.746;138.604;2023-02-21T01:00:41;102025.51;;;33.18;16.22
77778;BME280;66966;-34.746;138.604;2023-02-21T01:03:07;102030.81;;;33.21;16.17
77778;BME280;66966;-34.746;138.604;2023-02-21T01:05:32;102027.01;;;33.36;15.85
77778;BME280;66966;-34.746;138.604;2023-02-21T01:07:56;102025.34;;;33.82;15.53
77778;BME280;66966;-34.746;138.604;2023-02-21T01:10:22;102027.52;;;33.82;15.09
77778;BME280;66966;-34.746;138.604;2023-02-21T01:12:47;102025.95;;;33.98;15.10
77778;BME280;66966;-34.746;138.604;2023-02-21T01:15:13;102023.73;;;34.25;14.83
77778;BME280;66966;-34.746;138.604;2023-02-21T01:17:38;102019.89;;;34.10;14.89
77778;BME280;66966;-34.746;138.604;2023-02-21T01:20:05;102016.91;;;34.57;14.11
77778;BME280;66966;-34.746;138.604;2023-02-21T01:22:30;102013.96;;;34.51;14.20
77778;BME280;66966;-34.746;138.604;2023-02-21T01:24:56;102009.16;;;34.67;13.95
77778;BME280;66966;-34.746;138.604;2023-02-21T01:27:21;102006.18;;;34.83;13.84
77778;BME280;66966;-34.746;138.604;2023-02-21T01:29:48;102007.54;;;34.68;13.98
77778;BME280;66966;-34.746;138.604;2023-02-21T01:32:14;102007.16;;;34.89;14.03
77778;BME280;66966;-34.746;138.604;2023-02-21T01:34:39;102006.79;;;35.16;13.79
77778;BME280;66966;-34.746;138.604;2023-02-21T01:37:05;102004.88;;;35.27;14.19
77778;BME280;66966;-34.746;138.604;2023-02-21T01:39:31;102000.60;;;35.31;13.82
77778;BME280;66966;-34.746;138.604;2023-02-21T01:41:57;102002.60;;;35.38;13.69
77778;BME280;66966;-34.746;138.604;2023-02-21T01:44:34;102005.35;;;35.83;13.25
77778;BME280;66966;-34.746;138.604;2023-02-21T01:46:48;101999.48;;;35.52;13.19
77778;BME280;66966;-34.746;138.604;2023-02-21T01:49:17;101996.59;;;35.83;13.04
77778;BME280;66966;-34.746;138.604;2023-02-21T01:51:41;102002.60;;;35.93;12.54
77778;BME280;66966;-34.746;138.604;2023-02-21T01:54:07;101996.23;;;36.10;13.18
77778;BME280;66966;-34.746;138.604;2023-02-21T01:56:32;101997.03;;;35.87;12.66
77778;BME280;66966;-34.746;138.604;2023-02-21T01:59:01;101988.36;;;36.38;12.63
77778;BME280;66966;-34.746;138.604;2023-02-21T02:01:30;101986.71;;;36.08;13.06
77778;BME280;66966;-34.746;138.604;2023-02-21T02:03:49;101983.33;;;36.48;12.75
77778;BME280;66966;-34.746;138.604;2023-02-21T02:06:17;101978.55;;;36.31;12.37
77778;BME280;66966;-34.746;138.604;2023-02-21T02:08:41;101979.99;;;36.31;12.25
77778;BME280;66966;-34.746;138.604;2023-02-21T02:11:13;101974.10;;;36.57;12.26
77778;BME280;66966;-34.746;138.604;2023-02-21T02:16:02;101980.77;;;36.47;12.19
77778;BME280;66966;-34.746;138.604;2023-02-21T02:18:42;101982.89;;;36.92;12.18
77778;BME280;66966;-34.746;138.604;2023-02-21T02:23:31;101983.33;;;36.71;11.90
77778;BME280;66966;-34.746;138.604;2023-02-21T02:28:20;101986.56;;;36.80;11.75
77778;BME280;66966;-34.746;138.604;2023-02-21T02:30:42;101982.16;;;37.00;11.77
77778;BME280;66966;-34.746;138.604;2023-02-21T02:33:12;101977.37;;;37.26;11.93
77778;BME280;66966;-34.746;138.604;2023-02-21T02:35:28;101976.65;;;37.42;11.74
77778;BME280;66966;-34.746;138.604;2023-02-21T02:37:56;101973.32;;;37.24;12.13
77778;BME280;66966;-34.746;138.604;2023-02-21T02:40:21;101980.79;;;37.56;11.40
77778;BME280;66966;-34.746;138.604;2023-02-21T02:42:53;101982.42;;;37.45;11.36
77778;BME280;66966;-34.746;138.604;2023-02-21T02:45:14;101985.86;;;37.85;11.59
77778;BME280;66966;-34.746;138.604;2023-02-21T02:47:36;101979.09;;;37.77;11.21
77778;BME280;66966;-34.746;138.604;2023-02-21T02:50:00;101980.87;;;37.65;11.20
77778;BME280;66966;-34.746;138.604;2023-02-21T02:52:25;101974.61;;;37.86;11.18
77778;BME280;66966;-34.746;138.604;2023-02-21T02:55:01;101985.38;;;37.35;10.83
77778;BME280;66966;-34.746;138.604;2023-02-21T02:57:17;101986.50;;;37.62;10.92
77778;BME280;66966;-34.746;138.604;2023-02-21T02:59:45;101989.46;;;37.72;11.53
77778;BME280;66966;-34.746;138.604;2023-02-21T03:02:22;101986.32;;;37.54;11.14
77778;BME280;66966;-34.746;138.604;2023-02-21T03:04:43;101989.26;;;37.97;11.23
77778;BME280;66966;-34.746;138.604;2023-02-21T03:07:04;101988.23;;;38.06;11.11
77778;BME280;66966;-34.746;138.604;2023-02-21T03:09:31;101987.67;;;38.08;11.19
77778;BME280;66966;-34.746;138.604;2023-02-21T03:11:58;101987.05;;;38.03;10.97
77778;BME280;66966;-34.746;138.604;2023-02-21T03:14:18;101984.79;;;37.52;11.03
77778;BME280;66966;-34.746;138.604;2023-02-21T03:16:47;101977.86;;;37.53;11.14
77778;BME280;66966;-34.746;138.604;2023-02-21T03:19:11;101972.27;;;38.23;11.23
77778;BME280;66966;-34.746;138.604;2023-02-21T03:21:38;101970.25;;;37.38;11.14
77778;BME280;66966;-34.746;138.604;2023-02-21T03:24:02;101965.97;;;37.07;11.28
77778;BME280;66966;-34.746;138.604;2023-02-21T03:26:27;101964.29;;;37.22;11.49
77778;BME280;66966;-34.746;138.604;2023-02-21T03:28:52;101959.59;;;37.33;11.73
77778;BME280;66966;-34.746;138.604;2023-02-21T03:31:20;101951.00;;;37.76;11.31
77778;BME280;66966;-34.746;138.604;2023-02-21T03:33:43;101941.82;;;37.69;11.61
77778;BME280;66966;-34.746;138.604;2023-02-21T03:36:09;101937.53;;;37.82;11.44
77778;BME280;66966;-34.746;138.604;2023-02-21T03:38:35;101941.63;;;38.00;11.70
77778;BME280;66966;-34.746;138.604;2023-02-21T03:41:00;101936.63;;;38.18;11.17
77778;BME280;66966;-34.746;138.604;2023-02-21T03:43:26;101924.21;;;38.21;10.91
77778;BME280;66966;-34.746;138.604;2023-02-21T03:45:52;101921.77;;;38.56;11.52
77778;BME280;66966;-34.746;138.604;2023-02-21T03:48:17;101915.00;;;38.72;11.31
77778;BME280;66966;-34.746;138.604;2023-02-21T03:50:43;101916.99;;;38.68;11.18
77778;BME280;66966;-34.746;138.604;2023-02-21T03:53:09;101917.72;;;38.64;10.90
77778;BME280;66966;-34.746;138.604;2023-02-21T03:55:34;101914.93;;;38.93;10.84
77778;BME280;66966;-34.746;138.604;2023-02-21T03:58:01;101915.37;;;39.13;10.79
77778;BME280;66966;-34.746;138.604;2023-02-21T04:00:26;101912.75;;;39.18;10.92
77778;BME280;66966;-34.746;138.604;2023-02-21T04:02:52;101910.36;;;39.38;10.69
77778;BME280;66966;-34.746;138.604;2023-02-21T04:05:18;101911.22;;;39.58;10.64
77778;BME280;66966;-34.746;138.604;2023-02-21T04:07:43;101907.95;;;38.89;10.27
77778;BME280;66966;-34.746;138.604;2023-02-21T04:10:09;101903.81;;;39.01;10.63
77778;BME280;66966;-34.746;138.604;2023-02-21T04:12:35;101900.50;;;39.26;10.41
77778;BME280;66966;-34.746;138.604;2023-02-21T04:15:00;101898.03;;;39.50;10.19
77778;BME280;66966;-34.746;138.604;2023-02-21T04:17:26;101894.76;;;39.71;10.33
77778;BME280;66966;-34.746;138.604;2023-02-21T04:19:52;101887.00;;;39.27;10.45
77778;BME280;66966;-34.746;138.604;2023-02-21T04:22:18;101886.09;;;39.92;10.81
77778;BME280;66966;-34.746;138.604;2023-02-21T04:24:43;101887.03;;;39.65;10.48
77778;BME280;66966;-34.746;138.604;2023-02-21T04:27:09;101888.15;;;39.65;9.42
77778;BME280;66966;-34.746;138.604;2023-02-21T04:29:35;101879.19;;;39.32;9.61
77778;BME280;66966;-34.746;138.604;2023-02-21T04:32:00;101874.53;;;39.57;9.59
77778;BME280;66966;-34.746;138.604;2023-02-21T04:34:26;101868.91;;;40.05;9.53
77778;BME280;66966;-34.746;138.604;2023-02-21T04:36:52;101860.13;;;40.04;9.48
77778;BME280;66966;-34.746;138.604;2023-02-21T04:39:17;101856.21;;;39.75;9.11
77778;BME280;66966;-34.746;138.604;2023-02-21T04:41:43;101855.23;;;40.03;9.25
77778;BME280;66966;-34.746;138.604;2023-02-21T04:44:09;101852.29;;;39.99;9.33
77778;BME280;66966;-34.746;138.604;2023-02-21T04:46:35;101852.54;;;40.25;9.29
77778;BME280;66966;-34.746;138.604;2023-02-21T04:49:01;101848.07;;;40.64;8.98
77778;BME280;66966;-34.746;138.604;2023-02-21T04:51:27;101849.40;;;40.75;9.13
77778;BME280;66966;-34.746;138.604;2023-02-21T04:53:53;101845.73;;;40.74;9.16
77778;BME280;66966;-34.746;138.604;2023-02-21T04:56:20;101841.50;;;40.76;8.96
77778;BME280;66966;-34.746;138.604;2023-02-21T04:58:43;101840.83;;;40.73;8.91
77778;BME280;66966;-34.746;138.604;2023-02-21T05:01:10;101833.85;;;40.41;9.04
77778;BME280;66966;-34.746;138.604;2023-02-21T05:03:34;101830.87;;;40.29;8.86
77778;BME280;66966;-34.746;138.604;2023-02-21T05:06:00;101830.55;;;41.03;9.00
77778;BME280;66966;-34.746;138.604;2023-02-21T05:08:26;101829.00;;;40.63;8.74
77778;BME280;66966;-34.746;138.604;2023-02-21T05:10:52;101826.36;;;40.68;8.75
77778;BME280;66966;-34.746;138.604;2023-02-21T05:13:17;101834.39;;;40.17;9.01
77778;BME280;66966;-34.746;138.604;2023-02-21T05:15:43;101823.06;;;40.32;8.51
77778;BME280;66966;-34.746;138.604;2023-02-21T05:18:09;101822.81;;;41.04;8.18
77778;BME280;66966;-34.746;138.604;2023-02-21T05:20:34;101823.59;;;41.04;8.22
77778;BME280;66966;-34.746;138.604;2023-02-21T05:23:01;101826.51;;;41.15;8.56
77778;BME280;66966;-34.746;138.604;2023-02-21T05:25:26;101824.39;;;41.35;8.26
77778;BME280;66966;-34.746;138.604;2023-02-21T05:27:52;101823.80;;;41.76;8.33
77778;BME280;66966;-34.746;138.604;2023-02-21T05:32:43;101813.70;;;42.05;8.36
77778;BME280;66966;-34.746;138.604;2023-02-21T05:35:10;101821.41;;;41.65;7.63
77778;BME280;66966;-34.746;138.604;2023-02-21T05:37:34;101822.73;;;41.69;7.90
77778;BME280;66966;-34.746;138.604;2023-02-21T05:40:00;101823.60;;;41.54;7.87
77778;BME280;66966;-34.746;138.604;2023-02-21T05:42:25;101819.85;;;41.28;7.92
77778;BME280;66966;-34.746;138.604;2023-02-21T05:44:51;101822.11;;;40.85;7.87
77778;BME280;66966;-34.746;138.604;2023-02-21T05:47:17;101823.32;;;41.28;8.47
77778;BME280;66966;-34.746;138.604;2023-02-21T05:49:43;101819.29;;;40.89;8.40
77778;BME280;66966;-34.746;138.604;2023-02-21T05:52:12;101821.19;;;40.68;8.75
77778;BME280;66966;-34.746;138.604;2023-02-21T05:54:34;101820.41;;;40.67;8.61
77778;BME280;66966;-34.746;138.604;2023-02-21T05:56:59;101813.38;;;40.92;8.24
77778;BME280;66966;-34.746;138.604;2023-02-21T05:59:25;101813.40;;;41.03;8.33
77778;BME280;66966;-34.746;138.604;2023-02-21T06:01:51;101812.61;;;40.87;8.62
77778;BME280;66966;-34.746;138.604;2023-02-21T06:04:17;101809.70;;;40.34;8.54
77778;BME280;66966;-34.746;138.604;2023-02-21T06:06:43;101812.93;;;40.87;8.64
77778;BME280;66966;-34.746;138.604;2023-02-21T06:09:09;101805.80;;;40.71;8.43
77778;BME280;66966;-34.746;138.604;2023-02-21T06:11:36;101806.01;;;40.41;8.92
77778;BME280;66966;-34.746;138.604;2023-02-21T06:14:01;101796.15;;;40.71;9.00
77778;BME280;66966;-34.746;138.604;2023-02-21T06:16:25;101791.42;;;41.26;8.82
77778;BME280;66966;-34.746;138.604;2023-02-21T06:18:52;101790.32;;;41.08;8.57
77778;BME280;66966;-34.746;138.604;2023-02-21T06:21:16;101793.48;;;41.49;8.66
77778;BME280;66966;-34.746;138.604;2023-02-21T06:23:42;101796.27;;;41.48;8.67
77778;BME280;66966;-34.746;138.604;2023-02-21T06:26:07;101788.04;;;41.62;8.38
77778;BME280;66966;-34.746;138.604;2023-02-21T06:28:33;101790.21;;;41.57;8.18
77778;BME280;66966;-34.746;138.604;2023-02-21T06:30:59;101789.14;;;41.43;8.04
77778;BME280;66966;-34.746;138.604;2023-02-21T06:33:25;101791.00;;;41.42;8.18
77778;BME280;66966;-34.746;138.604;2023-02-21T06:35:50;101789.39;;;40.92;8.20
77778;BME280;66966;-34.746;138.604;2023-02-21T06:38:16;101786.36;;;40.79;8.36
77778;BME280;66966;-34.746;138.604;2023-02-21T06:40:42;101791.12;;;41.21;8.49
77778;BME280;66966;-34.746;138.604;2023-02-21T06:43:07;101785.18;;;41.02;8.71
77778;BME280;66966;-34.746;138.604;2023-02-21T06:45:33;101787.19;;;41.28;8.76
77778;BME280;66966;-34.746;138.604;2023-02-21T06:47:59;101782.38;;;41.03;8.61
77778;BME280;66966;-34.746;138.604;2023-02-21T06:50:24;101783.89;;;41.25;9.40
77778;BME280;66966;-34.746;138.604;2023-02-21T06:52:50;101791.74;;;41.23;10.05
77778;BME280;66966;-34.746;138.604;2023-02-21T06:55:20;101794.32;;;40.84;10.29
77778;BME280;66966;-34.746;138.604;2023-02-21T06:57:42;101799.39;;;40.50;10.35
77778;BME280;66966;-34.746;138.604;2023-02-21T07:00:09;101798.58;;;40.57;10.33
77778;BME280;66966;-34.746;138.604;2023-02-21T07:02:33;101804.28;;;40.21;10.50
77778;BME280;66966;-34.746;138.604;2023-02-21T07:04:58;101806.49;;;40.18;10.45
77778;BME280;66966;-34.746;138.604;2023-02-21T07:07:24;101806.80;;;40.22;10.48
77778;BME280;66966;-34.746;138.604;2023-02-21T07:09:50;101808.63;;;40.08;10.59
77778;BME280;66966;-34.746;138.604;2023-02-21T07:12:16;101806.66;;;39.92;10.80
77778;BME280;66966;-34.746;138.604;2023-02-21T07:14:41;101808.88;;;40.19;10.97
77778;BME280;66966;-34.746;138.604;2023-02-21T07:17:07;101806.15;;;39.78;11.05
77778;BME280;66966;-34.746;138.604;2023-02-21T07:19:33;101808.39;;;40.19;11.20
77778;BME280;66966;-34.746;138.604;2023-02-21T07:21:58;101815.15;;;40.51;10.74
77778;BME280;66966;-34.746;138.604;2023-02-21T07:24:24;101811.49;;;40.53;10.68
77778;BME280;66966;-34.746;138.604;2023-02-21T07:26:50;101815.00;;;40.50;10.63
77778;BME280;66966;-34.746;138.604;2023-02-21T07:29:15;101815.34;;;40.68;11.03
77778;BME280;66966;-34.746;138.604;2023-02-21T07:31:41;101816.74;;;40.93;10.95
77778;BME280;66966;-34.746;138.604;2023-02-21T07:34:07;101820.07;;;40.75;11.05
77778;BME280;66966;-34.746;138.604;2023-02-21T07:36:32;101823.92;;;40.66;10.85
77778;BME280;66966;-34.746;138.604;2023-02-21T07:38:58;101827.18;;;40.78;10.71
77778;BME280;66966;-34.746;138.604;2023-02-21T07:41:24;101829.52;;;40.52;10.66
77778;BME280;66966;-34.746;138.604;2023-02-21T07:43:50;101826.58;;;40.07;10.62
77778;BME280;66966;-34.746;138.604;2023-02-21T07:46:16;101824.66;;;39.93;10.60
77778;BME280;66966;-34.746;138.604;2023-02-21T07:48:41;101831.90;;;39.90;10.83
77778;BME280;66966;-34.746;138.604;2023-02-21T07:51:08;101836.26;;;40.07;10.89
77778;BME280;66966;-34.746;138.604;2023-02-21T07:53:32;101834.59;;;39.92;10.61
77778;BME280;66966;-34.746;138.604;2023-02-21T07:55:58;101836.52;;;39.96;10.72
77778;BME280;66966;-34.746;138.604;2023-02-21T07:58:24;101840.83;;;39.75;10.94
77778;BME280;66966;-34.746;138.604;2023-02-21T08:00:50;101842.08;;;39.90;10.95
77778;BME280;66966;-34.746;138.604;2023-02-21T08:03:15;101842.27;;;39.88;11.05
77778;BME280;66966;-34.746;138.604;2023-02-21T08:05:41;101835.98;;;40.18;11.11
77778;BME280;66966;-34.746;138.604;2023-02-21T08:08:07;101835.62;;;39.80;11.09
77778;BME280;66966;-34.746;138.604;2023-02-21T08:10:32;101840.03;;;39.42;11.22
77778;BME280;66966;-34.746;138.604;2023-02-21T08:12:58;101841.23;;;39.57;11.30
77778;BME280;66966;-34.746;138.604;2023-02-21T08:15:24;101833.91;;;39.89;11.31
77778;BME280;66966;-34.746;138.604;2023-02-21T08:17:49;101836.12;;;39.49;11.38
77778;BME280;66966;-34.746;138.604;2023-02-21T08:20:15;101841.96;;;39.32;11.47
77778;BME280;66966;-34.746;138.604;2023-02-21T08:22:41;101844.42;;;38.98;11.69
77778;BME280;66966;-34.746;138.604;2023-02-21T08:25:08;101845.85;;;38.78;11.81
77778;BME280;66966;-34.746;138.604;2023-02-21T08:27:32;101847.98;;;38.61;11.91
77778;BME280;66966;-34.746;138.604;2023-02-21T08:29:59;101844.67;;;38.32;11.97
77778;BME280;66966;-34.746;138.604;2023-02-21T08:32:24;101847.20;;;38.70;12.03
77778;BME280;66966;-34.746;138.604;2023-02-21T08:34:50;101850.03;;;38.77;12.19
77778;BME280;66966;-34.746;138.604;2023-02-21T08:37:16;101847.81;;;38.51;12.17
77778;BME280;66966;-34.746;138.604;2023-02-21T08:39:44;101850.37;;;38.35;12.30
77778;BME280;66966;-34.746;138.604;2023-02-21T08:42:07;101854.69;;;38.33;12.30
77778;BME280;66966;-34.746;138.604;2023-02-21T08:44:34;101860.64;;;38.16;12.44
77778;BME280;66966;-34.746;138.604;2023-02-21T08:46:59;101854.82;;;38.01;12.60
77778;BME280;66966;-34.746;138.604;2023-02-21T08:49:24;101860.93;;;37.87;12.74
77778;BME280;66966;-34.746;138.604;2023-02-21T08:51:50;101858.24;;;37.60;12.96
77778;BME280;66966;-34.746;138.604;2023-02-21T08:54:16;101856.43;;;37.49;13.17
77778;BME280;66966;-34.746;138.604;2023-02-21T08:56:41;101856.12;;;37.26;13.40
77778;BME280;66966;-34.746;138.604;2023-02-21T08:59:07;101858.31;;;37.14;13.56
77778;BME280;66966;-34.746;138.604;2023-02-21T09:01:34;101861.13;;;37.23;13.70
77778;BME280;66966;-34.746;138.604;2023-02-21T09:03:59;101864.72;;;36.85;13.81
77778;BME280;66966;-34.746;138.604;2023-02-21T09:06:25;101865.31;;;36.92;13.90
77778;BME280;66966;-34.746;138.604;2023-02-21T09:08:51;101861.16;;;36.74;13.97
77778;BME280;66966;-34.746;138.604;2023-02-21T09:11:17;101862.27;;;36.48;14.10
77778;BME280;66966;-34.746;138.604;2023-02-21T09:13:42;101864.83;;;36.38;14.16
77778;BME280;66966;-34.746;138.604;2023-02-21T09:16:08;101867.57;;;36.23;14.20
77778;BME280;66966;-34.746;138.604;2023-02-21T09:18:34;101863.67;;;36.07;14.36
77778;BME280;66966;-34.746;138.604;2023-02-21T09:21:00;101865.36;;;36.08;14.33
77778;BME280;66966;-34.746;138.604;2023-02-21T09:23:27;101864.65;;;35.61;14.68
77778;BME280;66966;-34.746;138.604;2023-02-21T09:25:54;101865.86;;;35.37;14.79
77778;BME280;66966;-34.746;138.604;2023-02-21T09:28:18;101866.10;;;35.25;15.06
77778;BME280;66966;-34.746;138.604;2023-02-21T09:30:43;101863.92;;;35.16;15.03
77778;BME280;66966;-34.746;138.604;2023-02-21T09:33:10;101867.22;;;35.31;15.23
77778;BME280;66966;-34.746;138.604;2023-02-21T09:35:35;101865.97;;;34.92;15.27
77778;BME280;66966;-34.746;138.604;2023-02-21T09:38:01;101863.09;;;34.80;15.35
77778;BME280;66966;-34.746;138.604;2023-02-21T09:40:35;101867.66;;;34.75;15.39
77778;BME280;66966;-34.746;138.604;2023-02-21T09:42:53;101870.15;;;34.57;15.49
77778;BME280;66966;-34.746;138.604;2023-02-21T09:45:17;101871.56;;;34.81;15.54
77778;BME280;66966;-34.746;138.604;2023-02-21T09:47:44;101870.46;;;34.31;15.74
77778;BME280;66966;-34.746;138.604;2023-02-21T09:50:11;101872.08;;;34.28;15.87
77778;BME280;66966;-34.746;138.604;2023-02-21T09:52:34;101877.37;;;34.02;15.99
77778;BME280;66966;-34.746;138.604;2023-02-21T09:55:04;101874.22;;;34.22;16.09
77778;BME280;66966;-34.746;138.604;2023-02-21T09:57:22;101878.17;;;33.93;16.13
77778;BME280;66966;-34.746;138.604;2023-02-21T09:59:50;101883.60;;;33.61;16.33
77778;BME280;66966;-34.746;138.604;2023-02-21T10:02:21;101887.28;;;33.44;16.30
77778;BME280;66966;-34.746;138.604;2023-02-21T10:04:58;101897.66;;;33.53;16.24
77778;BME280;66966;-34.746;138.604;2023-02-21T10:07:07;101892.93;;;33.72;16.28
77778;BME280;66966;-34.746;138.604;2023-02-21T10:09:35;101899.96;;;33.69;16.27
77778;BME280;66966;-34.746;138.604;2023-02-21T10:12:03;101902.23;;;33.48;16.37
77778;BME280;66966;-34.746;138.604;2023-02-21T10:14:26;101901.33;;;33.42;16.31
77778;BME280;66966;-34.746;138.604;2023-02-21T10:16:49;101897.42;;;33.37;16.35
77778;BME280;66966;-34.746;138.604;2023-02-21T10:19:13;101900.11;;;33.12;16.51
77778;BME280;66966;-34.746;138.604;2023-02-21T10:21:36;101903.16;;;32.64;16.51
77778;BME280;66966;-34.746;138.604;2023-02-21T10:23:59;101904.78;;;33.00;16.54
77778;BME280;66966;-34.746;138.604;2023-02-21T10:26:26;101903.89;;;33.21;16.53
77778;BME280;66966;-34.746;138.604;2023-02-21T10:28:47;101905.33;;;32.98;16.54
77778;BME280;66966;-34.746;138.604;2023-02-21T10:31:17;101905.29;;;33.23;16.50
77778;BME280;66966;-34.746;138.604;2023-02-21T10:33:39;101902.27;;;33.08;16.59
77778;BME280;66966;-34.746;138.604;2023-02-21T10:38:28;101920.50;;;33.32;16.52
77778;BME280;66966;-34.746;138.604;2023-02-21T10:40:55;101925.45;;;33.09;16.64
77778;BME280;66966;-34.746;138.604;2023-02-21T10:43:20;101927.74;;;32.93;16.75
77778;BME280;66966;-34.746;138.604;2023-02-21T10:45:46;101934.44;;;32.85;16.79
77778;BME280;66966;-34.746;138.604;2023-02-21T10:48:10;101942.78;;;32.66;16.83
77778;BME280;66966;-34.746;138.604;2023-02-21T10:50:43;101951.83;;;32.14;16.88
77778;BME280;66966;-34.746;138.604;2023-02-21T10:52:58;101949.35;;;32.60;16.98
77778;BME280;66966;-34.746;138.604;2023-02-21T10:55:23;101950.14;;;32.32;17.12
77778;BME280;66966;-34.746;138.604;2023-02-21T10:57:52;101949.85;;;32.23;17.14
77778;BME280;66966;-34.746;138.604;2023-02-21T11:00:23;101948.82;;;32.52;17.09
77778;BME280;66966;-34.746;138.604;2023-02-21T11:02:39;101946.79;;;32.48;17.07
77778;BME280;66966;-34.746;138.604;2023-02-21T11:05:12;101947.02;;;32.47;17.21
77778;BME280;66966;-34.746;138.604;2023-02-21T11:07:30;101947.93;;;32.22;17.33
77778;BME280;66966;-34.746;138.604;2023-02-21T11:09:53;101947.62;;;31.71;17.45
77778;BME280;66966;-34.746;138.604;2023-02-21T11:12:22;101951.54;;;31.33;18.02
77778;BME280;66966;-34.746;138.604;2023-02-21T11:15:01;101950.97;;;31.60;17.63
77778;BME280;66966;-34.746;138.604;2023-02-21T11:17:16;101953.25;;;31.48;17.57
77778;BME280;66966;-34.746;138.604;2023-02-21T11:19:45;101955.64;;;31.04;17.76
77778;BME280;66966;-34.746;138.604;2023-02-21T11:21:59;101953.17;;;31.65;17.73
77778;BME280;66966;-34.746;138.604;2023-02-21T11:24:24;101959.93;;;31.29;17.95
77778;BME280;66966;-34.746;138.604;2023-02-21T11:26:51;101959.69;;;31.19;17.97
77778;BME280;66966;-34.746;138.604;2023-02-21T11:29:17;101961.66;;;31.38;17.98
77778;BME280;66966;-34.746;138.604;2023-02-21T11:31:39;101959.41;;;30.99;18.10
77778;BME280;66966;-34.746;138.604;2023-02-21T11:34:06;101960.55;;;31.01;18.07
77778;BME280;66966;-34.746;138.604;2023-02-21T11:36:32;101957.31;;;30.80;18.15
77778;BME280;66966;-34.746;138.604;2023-02-21T11:39:06;101955.53;;;30.74;18.05
77778;BME280;66966;-34.746;138.604;2023-02-21T11:41:26;101946.67;;;30.80;18.12
77778;BME280;66966;-34.746;138.604;2023-02-21T11:43:47;101942.76;;;30.45;18.34
77778;BME280;66966;-34.746;138.604;2023-02-21T11:46:19;101945.50;;;31.15;18.10
77778;BME280;66966;-34.746;138.604;2023-02-21T11:48:44;101948.14;;;30.75;18.00
77778;BME280;66966;-34.746;138.604;2023-02-21T11:51:05;101948.13;;;30.34;18.24
77778;BME280;66966;-34.746;138.604;2023-02-21T11:53:29;101950.79;;;30.91;18.01
77778;BME280;66966;-34.746;138.604;2023-02-21T11:55:57;101952.59;;;30.40;18.18
77778;BME280;66966;-34.746;138.604;2023-02-21T11:58:21;101958.18;;;31.24;17.90
77778;BME280;66966;-34.746;138.604;2023-02-21T12:00:45;101952.12;;;30.77;17.88
77778;BME280;66966;-34.746;138.604;2023-02-21T12:05:40;101940.61;;;31.01;18.01
77778;BME280;66966;-34.746;138.604;2023-02-21T12:08:08;101935.78;;;30.80;17.95
77778;BME280;66966;-34.746;138.604;2023-02-21T12:10:36;101931.96;;;30.67;18.06
77778;BME280;66966;-34.746;138.604;2023-02-21T12:12:52;101927.32;;;30.70;18.06
77778;BME280;66966;-34.746;138.604;2023-02-21T12:15:18;101923.03;;;30.59;18.11
77778;BME280;66966;-34.746;138.604;2023-02-21T12:17:53;101921.47;;;30.57;18.25
77778;BME280;66966;-34.746;138.604;2023-02-21T12:20:21;101923.22;;;30.38;18.23
77778;BME280;66966;-34.746;138.604;2023-02-21T12:22:39;101920.13;;;30.46;18.15
77778;BME280;66966;-34.746;138.604;2023-02-21T12:25:01;101917.54;;;30.65;18.08
77778;BME280;66966;-34.746;138.604;2023-02-21T12:27:25;101907.37;;;30.36;18.18